Stations météo

réclame
Mon MeteoGroup
K13 Alpha, Pays-Bas (6252): Température de l'air & dewpoint: 14.08.2018 19:00:00 - 20.08.2018 19:00:00 (CEST)K13 Alpha, Pays-Bas (6252): water temperature: 14.08.2018 19:00:00 - 20.08.2018 19:00:00 (CEST)K13 Alpha, Pays-Bas (6252): Vitesse du vent & gusts: 14.08.2018 19:00:00 - 20.08.2018 19:00:00 (CEST)K13 Alpha, Pays-Bas (6252): Direction du vent: 14.08.2018 19:00:00 - 20.08.2018 19:00:00 (CEST)K13 Alpha, Pays-Bas (6252): reduced air pressure: 14.08.2018 19:00:00 - 20.08.2018 19:00:00 (CEST)
Date & Time tt [°C] td [°C] tw [°C] ff [km/h] ff [knt] fx [km/h] fx [knt] dd ppp [hPa]
20.08.2018 19:00:00 18,2 16,6 18,7 11 6 11 6 SW 1020,3
20.08.2018 18:00:00 18,3 16,3 18,7 11 6 11 6 WSW 1020,3
20.08.2018 17:00:00 18,3 16,2 18,6 11 6 14 8 WSW 1020,5
20.08.2018 16:00:00 18,1 15,7 18,6 15 8 18 10 WSW 1020,4
20.08.2018 15:00:00 18,2 15,8 18,5 16 9 18 10 WSW 1020,5
20.08.2018 14:00:00 17,8 15,4 18,4 15 8 14 8 WSW 1020,3
20.08.2018 13:00:00 17,9 15,4 18,4 15 8 14 8 W 1020,3
20.08.2018 12:00:00 17,8 15,1 18,2 9 5 14 8 WNW 1020,3
20.08.2018 11:00:00 17,5 14,5 18,1 11 6 22 12 NW 1020,1
20.08.2018 10:00:00 17,4 14,4 18,1 21 11 22 12 NW 1019,7
20.08.2018 09:00:00 18,0 14,3 18,2 21 11 25 14 NNW 1019,3
20.08.2018 08:00:00 17,7 15,3 18,2 24 13 25 14 NNW 1018,6
20.08.2018 07:00:00 17,6 15,9 18,2 26 14 29 16 NW 1018,1
20.08.2018 06:00:00 18,2 15,4 18,2 22 12 25 14 NNW 1017,8
20.08.2018 05:00:00 17,6 15,6 18,1 29 16 29 16 NNW 1017,4
20.08.2018 04:00:00 17,5 16,2 18,1 26 14 29 16 NW 1017,3
20.08.2018 03:00:00 17,6 16,3 18,1 22 12 32 18 NW 1017,2
20.08.2018 02:00:00 16,9 16,0 18,0 35 19 36 19 WNW 1016,9
20.08.2018 01:00:00 18,7 16,6 18,0 29 16 32 18 W 1016,6
20.08.2018 00:00:00 19,1 16,3 18,0 34 18 36 19 WNW 1016,7
19.08.2018 23:00:00 19,3 16,6 18,0 28 15 32 18 W 1016,6
19.08.2018 22:00:00 19,5 16,9 18,1 34 18 32 18 W 1016,3
19.08.2018 21:00:00 18,8 17,8 18,1 37 20 36 19 SW 1015,9
19.08.2018 20:00:00 18,6 17,5 18,1 31 17 29 16 SW 1015,8
19.08.2018 19:00:00 18,5 17,5 18,2 37 20 40 21 SW 1015,8
19.08.2018 18:00:00 18,6 17,0 18,2 46 25 47 25 SW 1015,8
19.08.2018 17:00:00 19,0 16,6 18,1 41 22 43 23 SW 1015,7
19.08.2018 16:00:00 18,9 16,3 18,1 44 24 43 23 SW 1015,5
19.08.2018 15:00:00 18,9 15,7 18,0 41 22 43 23 SW 1015,6
19.08.2018 14:00:00 18,7 16,0 18,0 44 24 47 25 SW 1015,8
19.08.2018 13:00:00 18,3 16,5 18,0 48 26 54 29 SW 1015,9
19.08.2018 12:00:00 18,5 16,0 18,0 50 27 50 27 SW 1016,1
19.08.2018 11:00:00 18,6 17,1 18,0 41 22 43 23 SSW 1016,6
19.08.2018 10:00:00 18,7 17,0 18,0 42 23 43 23 SSW 1016,6
19.08.2018 09:00:00 18,6 16,9 18,0 35 19 36 19 SW 1017,2
19.08.2018 08:00:00 18,6 17,0 18,0 29 16 32 18 SW 1017,6
19.08.2018 07:00:00 18,6 16,9 18,0 31 17 32 18 SW 1017,7
19.08.2018 06:00:00 18,5 17,1 18,1 34 18 32 18 SW 1017,6
19.08.2018 05:00:00 18,5 17,2 18,1 34 18 36 19 SW 1018,0
19.08.2018 04:00:00 18,5 17,2 18,0 37 20 36 19 SW 1018,5
19.08.2018 03:00:00 18,5 16,9 18,0 34 18 32 18 SSW 1018,6
19.08.2018 02:00:00 18,4 16,4 18,0 34 18 32 18 SW 1019,2
19.08.2018 01:00:00 18,3 16,7 17,9 31 17 29 16 SSW 1019,4
19.08.2018 00:00:00 18,4 16,9 17,9 34 18 36 19 SW 1019,4
18.08.2018 23:00:00 18,3 17,0 18,0 37 20 36 19 SSW 1019,5
18.08.2018 22:00:00 18,3 16,7 18,0 35 19 36 19 SSW 1019,7
18.08.2018 21:00:00 18,4 16,3 18,0 35 19 36 19 SSW 1019,3
18.08.2018 20:00:00 18,6 16,0 18,1 31 17 29 16 SSW 1019,1
18.08.2018 19:00:00 18,7 16,2 18,1 22 12 25 14 SW 1019,0
18.08.2018 18:00:00 18,8 15,9 18,1 26 14 32 18 SW 1019,4
18.08.2018 17:00:00 18,6 16,0 18,1 34 18 36 19 SSW 1019,3
18.08.2018 16:00:00 18,5 15,4 18,1 37 20 36 19 SW 1019,2
18.08.2018 15:00:00 18,4 14,8 18,1 34 18 36 19 SW 1019,4
18.08.2018 14:00:00 18,1 14,4 18,0 34 18 36 19 SW 1019,3
18.08.2018 13:00:00 17,8 13,9 17,9 35 19 36 19 WSW 1019,2
18.08.2018 12:00:00 17,6 13,4 17,9 37 20 40 21 SW 1018,9
18.08.2018 11:00:00 17,3 13,5 17,9 41 22 43 23 WSW 1018,9
18.08.2018 10:00:00 17,4 13,8 17,9 39 21 40 21 SW 1018,9
18.08.2018 09:00:00 17,3 14,0 17,9 37 20 36 19 WSW 1018,7
18.08.2018 08:00:00 17,1 13,7 17,9 34 18 32 18 WSW 1018,5
18.08.2018 07:00:00 17,3 13,8 17,9 34 18 32 18 WSW 1018,3
18.08.2018 06:00:00 17,4 13,7 17,9 31 17 32 18 WSW 1018,0
18.08.2018 05:00:00 17,7 13,1 17,9 31 17 32 18 WSW 1018,1
18.08.2018 04:00:00 18,2 13,3 17,9 29 16 32 18 WSW 1018,2
18.08.2018 03:00:00 18,4 13,5 17,9 31 17 32 18 WSW 1018,4
18.08.2018 02:00:00 18,4 14,5 17,9 31 17 32 18 WSW 1018,8
18.08.2018 01:00:00 18,3 14,4 17,9 34 18 32 18 SW 1018,6
18.08.2018 00:00:00 18,0 14,5 17,9 28 15 29 16 SSW 1018,7
17.08.2018 23:00:00 18,1 13,9 17,9 22 12 22 12 SW 1018,7
17.08.2018 22:00:00 18,4 12,9 17,9 21 11 25 14 WSW 1018,8
17.08.2018 21:00:00 18,2 15,1 18,0 28 15 25 14 SW 1018,6
17.08.2018 20:00:00 18,0 14,8 18,1 26 14 25 14 SSW 1018,5
17.08.2018 19:00:00 18,1 13,9 18,2 18 10 18 10 SSW 1018,5
17.08.2018 18:00:00 18,0 12,6 18,1 15 8 18 10 SW 1018,7
17.08.2018 17:00:00 17,7 12,0 18,2 16 9 22 12 WSW 1018,8
17.08.2018 16:00:00 17,5 11,8 18,1 24 13 25 14 W 1019,1
17.08.2018 15:00:00 17,5 11,7 18,2 26 14 25 14 W 1019,1
17.08.2018 14:00:00 17,6 11,6 18,1 26 14 25 14 WSW 1018,9
17.08.2018 13:00:00 17,6 12,5 18,0 22 12 22 12 WSW 1018,6
17.08.2018 12:00:00 17,7 11,7 17,9 22 12 22 12 W 1018,4
17.08.2018 11:00:00 17,8 11,3 17,8 16 9 18 10 W 1018,3
17.08.2018 10:00:00 17,3 10,7 17,8 18 10 18 10 W 1017,9
17.08.2018 09:00:00 17,7 10,8 17,8 21 11 22 12 WNW 1017,5
17.08.2018 08:00:00 17,5 10,4 17,8 21 11 22 12 WNW 1017,0
17.08.2018 07:00:00 17,1 10,7 17,8 21 11 22 12 WNW 1016,5
17.08.2018 06:00:00 17,2 11,0 17,8 21 11 22 12 WNW 1016,0
17.08.2018 05:00:00 17,4 10,6 17,8 26 14 29 16 WNW 1015,6
17.08.2018 04:00:00 17,7 11,6 17,9 31 17 32 18 WNW 1015,2
17.08.2018 03:00:00 17,8 13,6 17,9 31 17 32 18 W 1014,8
17.08.2018 02:00:00 17,7 13,9 17,8 29 16 29 16 W 1014,8
17.08.2018 01:00:00 17,8 13,5 17,8 24 13 29 16 W 1014,7
17.08.2018 00:00:00 17,3 14,0 17,8 22 12 25 14 WSW 1014,4
16.08.2018 23:00:00 17,1 13,6 17,8 28 15 29 16 WSW 1014,1
16.08.2018 22:00:00 17,2 13,3 17,8 28 15 29 16 W 1013,9
16.08.2018 21:00:00 17,1 13,9 17,9 28 15 32 18 W 1013,3
16.08.2018 20:00:00 17,4 14,1 17,9 29 16 32 18 WSW 1012,9
16.08.2018 19:00:00 17,2 14,1 17,9 31 17 36 19 SW 1012,8
16.08.2018 18:00:00 16,9 15,3 17,9 37 20 36 19 SSW 1012,6
16.08.2018 17:00:00 17,0 14,5 17,9 35 19 40 21 SSW 1012,4
16.08.2018 16:00:00 16,8 14,2 17,9 34 18 36 19 SSW 1012,6
16.08.2018 15:00:00 16,4 13,9 17,9 31 17 43 23 SW 1012,5
16.08.2018 14:00:00 17,1 12,9 17,9 50 27 50 27 W 1012,7
16.08.2018 13:00:00 17,4 13,6 17,9 41 22 47 25 W 1011,9
16.08.2018 12:00:00 18,5 16,5 17,9 44 24 54 29 SW 1011,7
16.08.2018 11:00:00 18,6 16,2 17,8 46 25 47 25 SW 1011,6
16.08.2018 10:00:00 18,5 15,9 17,8 41 22 43 23 SW 1011,7
16.08.2018 09:00:00 18,4 16,0 17,8 42 23 43 23 SW 1011,7
16.08.2018 08:00:00 18,3 16,1 17,8 41 22 40 21 SW 1011,8
16.08.2018 07:00:00 18,2 16,5 17,9 37 20 40 21 SW 1012,0
16.08.2018 06:00:00 18,1 16,6 17,9 39 21 36 19 SW 1012,3
16.08.2018 05:00:00 18,3 16,5 17,9 34 18 32 18 SW 1012,6
16.08.2018 04:00:00 18,5 16,7 17,9 35 19 40 21 SW 1012,8
16.08.2018 03:00:00 18,4 17,0 17,9 39 21 43 23 SW 1013,0
16.08.2018 02:00:00 18,5 17,0 17,9 41 22 43 23 SSW 1013,5
16.08.2018 01:00:00 18,5 16,8 17,8 44 24 43 23 SSW 1014,0
16.08.2018 00:00:00 18,5 16,9 17,8 44 24 47 25 SSW 1014,2
15.08.2018 23:00:00 18,5 16,8 17,8 48 26 50 27 SSW 1014,6
15.08.2018 22:00:00 18,6 16,8 17,9 52 28 50 27 SSW 1014,5
15.08.2018 21:00:00 18,5 16,6 17,9 46 25 47 25 SSW 1014,5
15.08.2018 20:00:00 18,3 16,4 17,9 46 25 43 23 SSW 1014,7
15.08.2018 19:00:00 18,3 16,2 18,0 42 23 43 23 SSW 1015,1
15.08.2018 18:00:00 18,3 16,1 18,1 39 21 40 21 SSW 1015,8
15.08.2018 17:00:00 18,4 15,9 18,0 35 19 32 18 SSW 1016,1
15.08.2018 16:00:00 18,4 15,2 18,1 34 18 32 18 SW 1016,2
15.08.2018 15:00:00 18,3 15,3 18,0 26 14 29 16 SSW 1016,5
15.08.2018 14:00:00 18,1 15,6 17,9 28 15 25 14 SW 1016,5
15.08.2018 13:00:00 18,1 16,1 17,9 26 14 25 14 SW 1016,6
15.08.2018 12:00:00 18,1 16,2 17,9 26 14 25 14 SW 1016,6
15.08.2018 11:00:00 18,7 15,9 17,8 26 14 25 14 SW 1016,6
15.08.2018 10:00:00 18,2 16,2 17,8 22 12 22 12 WSW 1016,3
15.08.2018 09:00:00 18,1 16,5 17,8 18 10 18 10 WSW 1016,0
15.08.2018 08:00:00 18,2 16,8 17,8 21 11 25 14 WSW 1016,0
15.08.2018 07:00:00 18,2 16,9 17,9 18 10 22 12 W 1015,7
15.08.2018 06:00:00 18,2 17,1 17,9 22 12 22 12 W 1015,5
15.08.2018 05:00:00 18,4 16,9 17,8 24 13 25 14 W 1015,6
15.08.2018 04:00:00 18,6 16,9 17,8 29 16 29 16 W 1015,6
15.08.2018 03:00:00 18,5 17,0 17,8 31 17 29 16 WSW 1015,5
15.08.2018 02:00:00 18,3 16,7 17,8 26 14 25 14 SW 1015,6
15.08.2018 01:00:00 18,4 16,3 17,8 29 16 29 16 SW 1015,7
15.08.2018 00:00:00 18,6 15,9 17,8 26 14 25 14 SW 1015,8
14.08.2018 23:00:00 18,2 16,2 17,8 28 15 29 16 WSW 1016,1
14.08.2018 22:00:00 18,0 15,9 17,8 29 16 29 16 SW 1016,0
14.08.2018 21:00:00 17,7 15,9 17,9 28 15 25 14 SW 1015,7
14.08.2018 20:00:00 17,7 15,8 17,9 24 13 22 12 SW 1015,3
14.08.2018 19:00:00 17,8 15,6 18,0 18 10 18 10 WSW 1015,4

tt = Température de l'air
td = dewpoint
tw = water temperature
ff = Vitesse du vent
fx = gusts
dd = Direction du vent
ppp = reduced air pressure

stations d'obs. à proximité